N23017 KMCO-
Flight info
| Callsign | N23017 |
|---|---|
| Flight time | N/A |
| Altitude | VFR |
| Route | |
| Aircraft | C172/L-DOV/C |
Departure
| Time | 2026-04-26 23:44 |
|---|---|
| Airport | Orlando International Airport (KMCO) |
Arrival
| Time | N/A |
|---|---|
| Airport | - |
| Time | Latitude | Longitude | Altitude | Speed | Heading |
|---|---|---|---|---|---|
| 2026-04-26 23:31 | 28.43698 | -81.33025 | 98 ft | 0 kts | 261° |
| 2026-04-26 23:36 | 28.43697 | -81.33029 | 98 ft | 5 kts | 225° |
| 2026-04-26 23:36 | 28.43686 | -81.32977 | 98 ft | 11 kts | 81° |
| 2026-04-26 23:36 | 28.43743 | -81.32930 | 97 ft | 12 kts | 0° |
| 2026-04-26 23:37 | 28.43830 | -81.32932 | 96 ft | 14 kts | 357° |
| 2026-04-26 23:37 | 28.43921 | -81.32933 | 97 ft | 14 kts | 359° |
| 2026-04-26 23:37 | 28.44003 | -81.32903 | 97 ft | 16 kts | 28° |
| 2026-04-26 23:37 | 28.44114 | -81.32862 | 96 ft | 16 kts | 360° |
| 2026-04-26 23:38 | 28.44216 | -81.32862 | 96 ft | 13 kts | 0° |
| 2026-04-26 23:38 | 28.44290 | -81.32863 | 98 ft | 9 kts | 359° |
| 2026-04-26 23:38 | 28.44360 | -81.32864 | 101 ft | 12 kts | 357° |
| 2026-04-26 23:38 | 28.44468 | -81.32865 | 103 ft | 21 kts | 359° |
| 2026-04-26 23:39 | 28.44604 | -81.32867 | 103 ft | 18 kts | 359° |
| 2026-04-26 23:39 | 28.44711 | -81.32868 | 105 ft | 13 kts | 0° |
| 2026-04-26 23:39 | 28.44793 | -81.32856 | 106 ft | 13 kts | 33° |
| 2026-04-26 23:39 | 28.44815 | -81.32790 | 106 ft | 5 kts | 94° |
| 2026-04-26 23:40 | 28.44815 | -81.32788 | 106 ft | 0 kts | 89° |
| 2026-04-26 23:41 | 28.44803 | -81.32721 | 104 ft | 16 kts | 136° |
| 2026-04-26 23:42 | 28.44609 | -81.32699 | 105 ft | 47 kts | 179° |
| 2026-04-26 23:42 | 28.43444 | -81.32677 | 172 ft | 105 kts | 180° |
| 2026-04-26 23:42 | 28.42678 | -81.32678 | 261 ft | 112 kts | 182° |
| 2026-04-26 23:43 | 28.41890 | -81.32649 | 378 ft | 115 kts | 180° |
| 2026-04-26 23:43 | 28.41101 | -81.32607 | 499 ft | 112 kts | 181° |
| 2026-04-26 23:43 | 28.40317 | -81.32526 | 568 ft | 115 kts | 177° |
| 2026-04-26 23:43 | 28.39518 | -81.32409 | 654 ft | 116 kts | 181° |
| 2026-04-26 23:44 | 28.38724 | -81.32308 | 751 ft | 113 kts | 181° |
| 2026-04-26 23:44 | 28.37948 | -81.32259 | 898 ft | 113 kts | 183° |
| 2026-04-26 23:44 | 28.37159 | -81.32208 | 1026 ft | 114 kts | 181° |
| 2026-04-26 23:44 | 28.36372 | -81.32162 | 1192 ft | 111 kts | 184° |
| 2026-04-26 23:45 | 28.35601 | -81.32117 | 1347 ft | 110 kts | 182° |
| 2026-04-26 23:45 | 28.35091 | -81.32103 | 1408 ft | 112 kts | 181° |
| 2026-04-26 23:45 | 28.34061 | -81.32066 | 1571 ft | 110 kts | 183° |
| 2026-04-26 23:45 | 28.33297 | -81.32006 | 1677 ft | 111 kts | 183° |
| 2026-04-26 23:46 | 28.32518 | -81.31959 | 1781 ft | 112 kts | 184° |
| 2026-04-26 23:46 | 28.31740 | -81.31955 | 1942 ft | 111 kts | 186° |
| 2026-04-26 23:46 | 28.30970 | -81.31951 | 2077 ft | 110 kts | 186° |
| 2026-04-26 23:46 | 28.30195 | -81.31888 | 2180 ft | 118 kts | 167° |
| 2026-04-26 23:47 | 28.29598 | -81.31238 | 2295 ft | 122 kts | 120° |
| 2026-04-26 23:47 | 28.29193 | -81.30404 | 2431 ft | 120 kts | 119° |
| 2026-04-26 23:47 | 28.28791 | -81.29575 | 2559 ft | 120 kts | 120° |
| 2026-04-26 23:47 | 28.28383 | -81.28736 | 2703 ft | 122 kts | 120° |
| 2026-04-26 23:48 | 28.27970 | -81.27891 | 2860 ft | 121 kts | 118° |
| 2026-04-26 23:48 | 28.27565 | -81.27060 | 3016 ft | 120 kts | 118° |
| 2026-04-26 23:48 | 28.27160 | -81.26231 | 3166 ft | 120 kts | 118° |
| 2026-04-26 23:48 | 28.26761 | -81.25415 | 3302 ft | 119 kts | 118° |
| 2026-04-26 23:49 | 28.26380 | -81.24640 | 3142 ft | 110 kts | 118° |
| 2026-04-26 23:49 | 28.25998 | -81.23865 | 2821 ft | 114 kts | 118° |
| 2026-04-26 23:49 | 28.25610 | -81.23073 | 2506 ft | 115 kts | 117° |
| 2026-04-26 23:49 | 28.25218 | -81.22270 | 2151 ft | 119 kts | 117° |
| 2026-04-26 23:50 | 28.24808 | -81.21430 | 1747 ft | 123 kts | 117° |
| 2026-04-26 23:50 | 28.24397 | -81.20589 | 1624 ft | 124 kts | 116° |
| 2026-04-26 23:50 | 28.24113 | -81.20002 | 1611 ft | 131 kts | 118° |
| 2026-04-26 23:50 | 28.23660 | -81.19080 | 1608 ft | 136 kts | 117° |
| 2026-04-26 23:51 | 28.23201 | -81.18138 | 1609 ft | 137 kts | 117° |
| 2026-04-26 23:51 | 28.22738 | -81.17194 | 1614 ft | 137 kts | 117° |
| 2026-04-26 23:51 | 28.22274 | -81.16246 | 1608 ft | 137 kts | 117° |
| 2026-04-26 23:51 | 28.21809 | -81.15300 | 1617 ft | 137 kts | 118° |
| 2026-04-26 23:52 | 28.21344 | -81.14354 | 1606 ft | 138 kts | 118° |
| 2026-04-26 23:52 | 28.20875 | -81.13396 | 1608 ft | 139 kts | 117° |
| 2026-04-26 23:52 | 28.20405 | -81.12439 | 1609 ft | 139 kts | 117° |
| 2026-04-26 23:52 | 28.19943 | -81.11498 | 1616 ft | 138 kts | 118° |
| 2026-04-26 23:53 | 28.19480 | -81.10551 | 1598 ft | 138 kts | 117° |
| 2026-04-26 23:53 | 28.19012 | -81.09605 | 1600 ft | 137 kts | 119° |
| 2026-04-26 23:53 | 28.18547 | -81.08661 | 1600 ft | 137 kts | 118° |
| 2026-04-26 23:53 | 28.18085 | -81.07718 | 1600 ft | 137 kts | 118° |
| 2026-04-26 23:54 | 28.17623 | -81.06777 | 1603 ft | 136 kts | 118° |
| 2026-04-26 23:54 | 28.17163 | -81.05840 | 1597 ft | 136 kts | 118° |
| 2026-04-26 23:54 | 28.16702 | -81.04901 | 1597 ft | 135 kts | 118° |
| 2026-04-26 23:54 | 28.16245 | -81.03971 | 1597 ft | 135 kts | 118° |
| 2026-04-26 23:55 | 28.15788 | -81.03042 | 1593 ft | 134 kts | 118° |
| 2026-04-26 23:55 | 28.15334 | -81.02118 | 1595 ft | 134 kts | 118° |
| 2026-04-26 23:55 | 28.14881 | -81.01195 | 1594 ft | 134 kts | 117° |
| 2026-04-26 23:55 | 28.14434 | -81.00286 | 1594 ft | 134 kts | 117° |
| 2026-04-26 23:56 | 28.13981 | -80.99366 | 1597 ft | 134 kts | 116° |
| 2026-04-26 23:56 | 28.13526 | -80.98444 | 1598 ft | 134 kts | 116° |
| 2026-04-26 23:56 | 28.13072 | -80.97521 | 1599 ft | 134 kts | 116° |
| 2026-04-26 23:56 | 28.12614 | -80.96589 | 1598 ft | 136 kts | 117° |
| 2026-04-26 23:57 | 28.12150 | -80.95649 | 1594 ft | 137 kts | 117° |
| 2026-04-26 23:57 | 28.11684 | -80.94705 | 1594 ft | 137 kts | 117° |
| 2026-04-26 23:57 | 28.11224 | -80.93773 | 1595 ft | 137 kts | 117° |
| 2026-04-26 23:57 | 28.10760 | -80.92829 | 1595 ft | 137 kts | 117° |
| 2026-04-26 23:58 | 28.10294 | -80.91885 | 1596 ft | 137 kts | 117° |
| 2026-04-26 23:58 | 28.09829 | -80.90941 | 1599 ft | 137 kts | 118° |
| 2026-04-26 23:58 | 28.09379 | -80.90029 | 1600 ft | 130 kts | 118° |
| 2026-04-26 23:58 | 28.08941 | -80.89142 | 1600 ft | 128 kts | 118° |
| 2026-04-26 23:59 | 28.08507 | -80.88262 | 1595 ft | 128 kts | 118° |
| 2026-04-26 23:59 | 28.08075 | -80.87386 | 1604 ft | 127 kts | 118° |
| 2026-04-26 23:59 | 28.07642 | -80.86508 | 1594 ft | 128 kts | 117° |
| 2026-04-26 23:59 | 28.07207 | -80.85628 | 1594 ft | 128 kts | 117° |
| 2026-04-27 00:00 | 28.06772 | -80.84747 | 1593 ft | 128 kts | 117° |
| 2026-04-27 00:00 | 28.06336 | -80.83864 | 1593 ft | 128 kts | 118° |
| 2026-04-27 00:00 | 28.05893 | -80.82971 | 1592 ft | 132 kts | 119° |
| 2026-04-27 00:00 | 28.05443 | -80.82057 | 1598 ft | 134 kts | 119° |
| 2026-04-27 00:01 | 28.04986 | -80.81127 | 1595 ft | 135 kts | 119° |
| 2026-04-27 00:01 | 28.04894 | -80.80135 | 1586 ft | 130 kts | 66° |
| 2026-04-27 00:01 | 28.05256 | -80.79206 | 1609 ft | 129 kts | 56° |
| 2026-04-27 00:01 | 28.05799 | -80.78391 | 1612 ft | 130 kts | 50° |
| 2026-04-27 00:02 | 28.06341 | -80.77584 | 1613 ft | 127 kts | 51° |
| 2026-04-27 00:02 | 28.06892 | -80.76804 | 1609 ft | 126 kts | 54° |
| 2026-04-27 00:02 | 28.07153 | -80.75863 | 1598 ft | 125 kts | 65° |
| 2026-04-27 00:02 | 28.07838 | -80.75354 | 1594 ft | 124 kts | 2° |
| 2026-04-27 00:03 | 28.08670 | -80.75583 | 1600 ft | 123 kts | 0° |
| 2026-04-27 00:03 | 28.09354 | -80.75091 | 1600 ft | 123 kts | 63° |
| 2026-04-27 00:03 | 28.09294 | -80.74205 | 1602 ft | 114 kts | 128° |
| 2026-04-27 00:03 | 28.08585 | -80.73735 | 1610 ft | 124 kts | 155° |
| 2026-04-27 00:04 | 28.07794 | -80.73315 | 1614 ft | 127 kts | 155° |
| 2026-04-27 00:04 | 28.06984 | -80.72897 | 1610 ft | 128 kts | 155° |
| 2026-04-27 00:04 | 28.06183 | -80.72483 | 1610 ft | 128 kts | 155° |
| 2026-04-27 00:04 | 28.05369 | -80.72062 | 1617 ft | 129 kts | 157° |
| 2026-04-27 00:05 | 28.04567 | -80.71613 | 1607 ft | 129 kts | 154° |
| 2026-04-27 00:05 | 28.03759 | -80.71159 | 1607 ft | 130 kts | 154° |
| 2026-04-27 00:05 | 28.02941 | -80.70695 | 1607 ft | 131 kts | 155° |
| 2026-04-27 00:05 | 28.02123 | -80.70225 | 1606 ft | 132 kts | 155° |
| 2026-04-27 00:06 | 28.01302 | -80.69750 | 1603 ft | 133 kts | 154° |
| 2026-04-27 00:06 | 28.00478 | -80.69282 | 1605 ft | 133 kts | 155° |
| 2026-04-27 00:06 | 27.99656 | -80.68809 | 1603 ft | 133 kts | 155° |
| 2026-04-27 00:06 | 27.98834 | -80.68330 | 1601 ft | 133 kts | 155° |
| 2026-04-27 00:07 | 27.98020 | -80.67848 | 1600 ft | 131 kts | 154° |
| 2026-04-27 00:07 | 27.97215 | -80.67378 | 1601 ft | 130 kts | 154° |
| 2026-04-27 00:07 | 27.96405 | -80.66920 | 1600 ft | 130 kts | 155° |
| 2026-04-27 00:07 | 27.95605 | -80.66467 | 1600 ft | 130 kts | 155° |
| 2026-04-27 00:08 | 27.94791 | -80.66005 | 1601 ft | 129 kts | 154° |
| 2026-04-27 00:08 | 27.93998 | -80.65556 | 1605 ft | 128 kts | 155° |
| 2026-04-27 00:08 | 27.93194 | -80.65092 | 1596 ft | 130 kts | 155° |
| 2026-04-27 00:08 | 27.92381 | -80.64622 | 1597 ft | 133 kts | 155° |
| 2026-04-27 00:09 | 27.91565 | -80.64135 | 1596 ft | 132 kts | 155° |
| 2026-04-27 00:09 | 27.90751 | -80.63649 | 1594 ft | 132 kts | 155° |
| 2026-04-27 00:09 | 27.89930 | -80.63163 | 1596 ft | 134 kts | 154° |
| 2026-04-27 00:09 | 27.89105 | -80.62685 | 1597 ft | 133 kts | 155° |
| 2026-04-27 00:10 | 27.88285 | -80.62204 | 1597 ft | 132 kts | 155° |
| 2026-04-27 00:10 | 27.87464 | -80.61717 | 1596 ft | 134 kts | 154° |
| 2026-04-27 00:10 | 27.86633 | -80.61232 | 1597 ft | 134 kts | 155° |
| 2026-04-27 00:10 | 27.85808 | -80.60763 | 1598 ft | 133 kts | 156° |
| 2026-04-27 00:11 | 27.84987 | -80.60299 | 1598 ft | 131 kts | 155° |
| 2026-04-27 00:11 | 27.84176 | -80.59835 | 1595 ft | 130 kts | 155° |
| 2026-04-27 00:11 | 27.83365 | -80.59370 | 1605 ft | 131 kts | 154° |
| 2026-04-27 00:11 | 27.82542 | -80.58898 | 1595 ft | 132 kts | 155° |
| 2026-04-27 00:12 | 27.81725 | -80.58434 | 1594 ft | 131 kts | 155° |
| 2026-04-27 00:12 | 27.80912 | -80.57974 | 1597 ft | 130 kts | 155° |
| 2026-04-27 00:12 | 27.80101 | -80.57511 | 1592 ft | 130 kts | 155° |
| 2026-04-27 00:12 | 27.79300 | -80.57049 | 1590 ft | 130 kts | 155° |
| 2026-04-27 00:13 | 27.78493 | -80.56583 | 1592 ft | 130 kts | 154° |
| 2026-04-27 00:13 | 27.77687 | -80.56114 | 1589 ft | 130 kts | 154° |
| 2026-04-27 00:13 | 27.76881 | -80.55638 | 1602 ft | 132 kts | 154° |
| 2026-04-27 00:13 | 27.76063 | -80.55157 | 1603 ft | 133 kts | 155° |
| 2026-04-27 00:14 | 27.75240 | -80.54678 | 1608 ft | 133 kts | 155° |
| 2026-04-27 00:14 | 27.74412 | -80.54196 | 1606 ft | 133 kts | 154° |
| 2026-04-27 00:14 | 27.73585 | -80.53722 | 1597 ft | 133 kts | 155° |
| 2026-04-27 00:14 | 27.72775 | -80.53250 | 1602 ft | 130 kts | 154° |
| 2026-04-27 00:15 | 27.71976 | -80.52782 | 1593 ft | 129 kts | 154° |
| 2026-04-27 00:15 | 27.71189 | -80.52317 | 1588 ft | 127 kts | 154° |
| 2026-04-27 00:15 | 27.70414 | -80.51852 | 1599 ft | 127 kts | 155° |
| 2026-04-27 00:15 | 27.69641 | -80.51384 | 1600 ft | 126 kts | 155° |
| 2026-04-27 00:16 | 27.68876 | -80.50922 | 1604 ft | 127 kts | 155° |
| 2026-04-27 00:16 | 27.68092 | -80.50452 | 1596 ft | 125 kts | 155° |
| 2026-04-27 00:16 | 27.67344 | -80.49997 | 1714 ft | 119 kts | 155° |
| 2026-04-27 00:16 | 27.66637 | -80.49554 | 1839 ft | 117 kts | 154° |
| 2026-04-27 00:17 | 27.65932 | -80.49106 | 1971 ft | 117 kts | 154° |
| 2026-04-27 00:17 | 27.65223 | -80.48648 | 2110 ft | 117 kts | 155° |
| 2026-04-27 00:17 | 27.64520 | -80.48184 | 2235 ft | 118 kts | 154° |
| 2026-04-27 00:17 | 27.63803 | -80.47724 | 2348 ft | 119 kts | 154° |
| 2026-04-27 00:18 | 27.63082 | -80.47260 | 2488 ft | 119 kts | 154° |
| 2026-04-27 00:18 | 27.62365 | -80.46791 | 2602 ft | 120 kts | 154° |
| 2026-04-27 00:18 | 27.61642 | -80.46325 | 2751 ft | 120 kts | 154° |
| 2026-04-27 00:18 | 27.60912 | -80.45848 | 2882 ft | 122 kts | 154° |
| 2026-04-27 00:19 | 27.60179 | -80.45372 | 2994 ft | 122 kts | 155° |
| 2026-04-27 00:19 | 27.59452 | -80.44873 | 3105 ft | 121 kts | 155° |
| 2026-04-27 00:19 | 27.58732 | -80.44369 | 3224 ft | 121 kts | 154° |
| 2026-04-27 00:19 | 27.58011 | -80.43881 | 3345 ft | 121 kts | 155° |
| 2026-04-27 00:20 | 27.57291 | -80.43394 | 3420 ft | 122 kts | 154° |
| 2026-04-27 00:20 | 27.56563 | -80.42913 | 3480 ft | 124 kts | 154° |
| 2026-04-27 00:20 | 27.55813 | -80.42423 | 3540 ft | 125 kts | 154° |
| 2026-04-27 00:20 | 27.55057 | -80.41934 | 3592 ft | 125 kts | 155° |
| 2026-04-27 00:21 | 27.54304 | -80.41436 | 3658 ft | 126 kts | 154° |
| 2026-04-27 00:21 | 27.53550 | -80.40930 | 3722 ft | 126 kts | 154° |
| 2026-04-27 00:21 | 27.52792 | -80.40429 | 3784 ft | 127 kts | 155° |
| 2026-04-27 00:21 | 27.52029 | -80.39917 | 3835 ft | 128 kts | 154° |
| 2026-04-27 00:22 | 27.51261 | -80.39404 | 3885 ft | 129 kts | 155° |
| 2026-04-27 00:22 | 27.50492 | -80.38888 | 3945 ft | 128 kts | 154° |
| 2026-04-27 00:22 | 27.49726 | -80.38383 | 4011 ft | 127 kts | 155° |
| 2026-04-27 00:22 | 27.48966 | -80.37870 | 4072 ft | 127 kts | 154° |
| 2026-04-27 00:23 | 27.48203 | -80.37357 | 4121 ft | 128 kts | 154° |
| 2026-04-27 00:23 | 27.47432 | -80.36844 | 4173 ft | 128 kts | 154° |
| 2026-04-27 00:23 | 27.46675 | -80.36345 | 4235 ft | 127 kts | 154° |
| 2026-04-27 00:23 | 27.45911 | -80.35845 | 4305 ft | 127 kts | 155° |
| 2026-04-27 00:24 | 27.45148 | -80.35344 | 4353 ft | 127 kts | 154° |
| 2026-04-27 00:24 | 27.44377 | -80.34842 | 4393 ft | 128 kts | 154° |
| 2026-04-27 00:24 | 27.43604 | -80.34336 | 4442 ft | 128 kts | 154° |
| 2026-04-27 00:24 | 27.42834 | -80.33827 | 4509 ft | 128 kts | 154° |
| 2026-04-27 00:25 | 27.42080 | -80.33327 | 4559 ft | 127 kts | 155° |
| 2026-04-27 00:25 | 27.41315 | -80.32823 | 4616 ft | 127 kts | 154° |
| 2026-04-27 00:25 | 27.40546 | -80.32321 | 4687 ft | 128 kts | 154° |
| 2026-04-27 00:25 | 27.39777 | -80.31818 | 4733 ft | 128 kts | 155° |
| 2026-04-27 00:26 | 27.39006 | -80.31313 | 4804 ft | 128 kts | 154° |
| 2026-04-27 00:26 | 27.38232 | -80.30814 | 4872 ft | 128 kts | 155° |
| 2026-04-27 00:26 | 27.37458 | -80.30310 | 4939 ft | 129 kts | 154° |
| 2026-04-27 00:26 | 27.36681 | -80.29807 | 4999 ft | 129 kts | 155° |
| 2026-04-27 00:27 | 27.35904 | -80.29304 | 5058 ft | 129 kts | 154° |
| 2026-04-27 00:27 | 27.35132 | -80.28799 | 5119 ft | 128 kts | 154° |
| 2026-04-27 00:27 | 27.34354 | -80.28302 | 5184 ft | 128 kts | 155° |
| 2026-04-27 00:27 | 27.33581 | -80.27799 | 5251 ft | 128 kts | 154° |
| 2026-04-27 00:28 | 27.32808 | -80.27295 | 5307 ft | 128 kts | 155° |
| 2026-04-27 00:28 | 27.32036 | -80.26788 | 5367 ft | 129 kts | 155° |
| 2026-04-27 00:28 | 27.31262 | -80.26280 | 5429 ft | 128 kts | 154° |
| 2026-04-27 00:28 | 27.30499 | -80.25790 | 5487 ft | 128 kts | 155° |
| 2026-04-27 00:29 | 27.29726 | -80.25293 | 5558 ft | 128 kts | 154° |
| 2026-04-27 00:29 | 27.28955 | -80.24795 | 5619 ft | 128 kts | 154° |
| 2026-04-27 00:29 | 27.28186 | -80.24294 | 5681 ft | 128 kts | 154° |
| 2026-04-27 00:29 | 27.27412 | -80.23787 | 5732 ft | 129 kts | 154° |
| 2026-04-27 00:30 | 27.26635 | -80.23280 | 5781 ft | 129 kts | 154° |
| 2026-04-27 00:30 | 27.25858 | -80.22773 | 5832 ft | 129 kts | 154° |
| 2026-04-27 00:30 | 27.25081 | -80.22269 | 5889 ft | 128 kts | 155° |
| 2026-04-27 00:30 | 27.24308 | -80.21763 | 5933 ft | 129 kts | 154° |
| 2026-04-27 00:31 | 27.23534 | -80.21260 | 5977 ft | 129 kts | 154° |
| 2026-04-27 00:31 | 27.22759 | -80.20755 | 6019 ft | 129 kts | 154° |
| 2026-04-27 00:31 | 27.21983 | -80.20246 | 6074 ft | 129 kts | 152° |
| 2026-04-27 00:31 | 27.21236 | -80.19691 | 6125 ft | 129 kts | 150° |
| 2026-04-27 00:32 | 27.20500 | -80.19139 | 6172 ft | 129 kts | 150° |
| 2026-04-27 00:32 | 27.19753 | -80.18581 | 6207 ft | 129 kts | 150° |
| 2026-04-27 00:32 | 27.19010 | -80.18014 | 6249 ft | 130 kts | 148° |
| 2026-04-27 00:32 | 27.18281 | -80.17413 | 6301 ft | 130 kts | 148° |
| 2026-04-27 00:33 | 27.17549 | -80.16821 | 6347 ft | 129 kts | 154° |
| 2026-04-27 00:33 | 27.16753 | -80.16380 | 6393 ft | 127 kts | 159° |
| 2026-04-27 00:33 | 27.15954 | -80.15943 | 6433 ft | 127 kts | 159° |
| 2026-04-27 00:33 | 27.15156 | -80.15513 | 6467 ft | 127 kts | 159° |
| 2026-04-27 00:34 | 27.14363 | -80.15081 | 6502 ft | 127 kts | 159° |
| 2026-04-27 00:34 | 27.13570 | -80.14649 | 6547 ft | 127 kts | 159° |
| 2026-04-27 00:34 | 27.12760 | -80.14208 | 6501 ft | 134 kts | 160° |
| 2026-04-27 00:34 | 27.11902 | -80.13741 | 6426 ft | 138 kts | 160° |
| 2026-04-27 00:35 | 27.11058 | -80.13279 | 6094 ft | 132 kts | 160° |
| 2026-04-27 00:35 | 27.10240 | -80.12835 | 5702 ft | 129 kts | 160° |
| 2026-04-27 00:35 | 27.09709 | -80.12546 | 5453 ft | 127 kts | 160° |
| 2026-04-27 00:35 | 27.08915 | -80.12115 | 5050 ft | 127 kts | 160° |
| 2026-04-27 00:36 | 27.08099 | -80.11662 | 4521 ft | 133 kts | 160° |
| 2026-04-27 00:36 | 27.06993 | -80.11046 | 3817 ft | 134 kts | 159° |
| 2026-04-27 00:36 | 27.06426 | -80.10749 | 3457 ft | 132 kts | 160° |
| 2026-04-27 00:36 | 27.05606 | -80.10322 | 2958 ft | 130 kts | 160° |
| 2026-04-27 00:37 | 27.04802 | -80.09896 | 2479 ft | 124 kts | 159° |
| 2026-04-27 00:37 | 27.04125 | -80.09520 | 2401 ft | 94 kts | 159° |
| 2026-04-27 00:37 | 27.03606 | -80.09210 | 2348 ft | 78 kts | 159° |
| 2026-04-27 00:37 | 27.03169 | -80.08936 | 2285 ft | 66 kts | 160° |
| 2026-04-27 00:38 | 27.02786 | -80.08671 | 2088 ft | 62 kts | 157° |
| 2026-04-27 00:38 | 27.02414 | -80.08440 | 1902 ft | 60 kts | 159° |
| 2026-04-27 00:38 | 27.02060 | -80.08217 | 1725 ft | 60 kts | 160° |
| 2026-04-27 00:38 | 27.01717 | -80.07992 | 1567 ft | 57 kts | 154° |
| 2026-04-27 00:39 | 27.01410 | -80.07738 | 1389 ft | 52 kts | 155° |
| 2026-04-27 00:39 | 27.01087 | -80.07510 | 1164 ft | 52 kts | 157° |
| 2026-04-27 00:39 | 27.00762 | -80.07285 | 1010 ft | 55 kts | 156° |
| 2026-04-27 00:39 | 27.00408 | -80.07078 | 880 ft | 54 kts | 160° |
| 2026-04-27 00:40 | 27.00061 | -80.06883 | 662 ft | 55 kts | 158° |
| 2026-04-27 00:40 | 26.99871 | -80.06741 | -9 ft | 0 kts | 188° |
| 2026-04-27 00:40 | 26.98817 | -80.07170 | 41 ft | 413 kts | 145° |
| 2026-04-27 00:40 | 26.98056 | -80.08439 | 1329 ft | 1995 kts | 168° |
| 2026-04-27 00:41 | 26.91971 | -80.11134 | 3424 ft | 0 kts | 162° |
| 2026-04-27 00:41 | 26.91387 | -80.11048 | 2752 ft | 64 kts | 165° |
| 2026-04-27 00:41 | 26.91266 | -80.11014 | 4840 ft | 0 kts | 176° |
| 2026-04-27 00:41 | 26.72640 | -79.97920 | 7371 ft | 24 kts | 31° |
| 2026-04-27 00:42 | 26.73044 | -79.97902 | 1401 ft | 46 kts | 146° |
| 2026-04-27 00:42 | 26.70282 | -80.00234 | 566 ft | 811 kts | 152° |
| 2026-04-27 00:42 | 26.68847 | -80.03274 | 183 ft | 726 kts | 152° |
| 2026-04-27 00:42 | 26.67548 | -80.04416 | 261 ft | 572 kts | 152° |
| 2026-04-27 00:43 | 26.67992 | -80.05054 | 1071 ft | 1208 kts | 152° |
| 2026-04-27 00:43 | 26.68414 | -80.08252 | 386 ft | 0 kts | 152° |
| 2026-04-27 00:43 | 26.68524 | -80.07972 | 28 ft | 0 kts | 169° |